sensor_id;sensor_type;location;lat;lon;timestamp;P1;durP1;ratioP1;P2;durP2;ratioP2
18387;SDS011;9320;50.256;19.026;2023-06-10T00:01:12;29.67;;;21.10;;
18387;SDS011;9320;50.256;19.026;2023-06-10T00:03:40;27.02;;;20.38;;
18387;SDS011;9320;50.256;19.026;2023-06-10T00:06:09;29.08;;;19.80;;
18387;SDS011;9320;50.256;19.026;2023-06-10T00:08:37;28.95;;;21.40;;
18387;SDS011;9320;50.256;19.026;2023-06-10T00:11:07;28.35;;;19.83;;
18387;SDS011;9320;50.256;19.026;2023-06-10T00:13:36;29.45;;;20.65;;
18387;SDS011;9320;50.256;19.026;2023-06-10T00:16:06;26.70;;;19.33;;
18387;SDS011;9320;50.256;19.026;2023-06-10T00:18:34;26.48;;;19.48;;
18387;SDS011;9320;50.256;19.026;2023-06-10T00:21:03;29.27;;;20.27;;
18387;SDS011;9320;50.256;19.026;2023-06-10T00:23:32;27.45;;;18.90;;
18387;SDS011;9320;50.256;19.026;2023-06-10T00:26:05;25.15;;;18.92;;
18387;SDS011;9320;50.256;19.026;2023-06-10T00:28:33;24.33;;;18.35;;
18387;SDS011;9320;50.256;19.026;2023-06-10T00:31:02;27.92;;;18.77;;
18387;SDS011;9320;50.256;19.026;2023-06-10T00:33:32;23.88;;;17.23;;
18387;SDS011;9320;50.256;19.026;2023-06-10T00:35:59;23.52;;;16.42;;
18387;SDS011;9320;50.256;19.026;2023-06-10T00:38:27;24.85;;;17.45;;
18387;SDS011;9320;50.256;19.026;2023-06-10T00:40:56;21.52;;;16.77;;
18387;SDS011;9320;50.256;19.026;2023-06-10T00:43:24;20.98;;;16.50;;
18387;SDS011;9320;50.256;19.026;2023-06-10T00:45:52;24.13;;;15.85;;
18387;SDS011;9320;50.256;19.026;2023-06-10T00:48:20;20.38;;;14.90;;
18387;SDS011;9320;50.256;19.026;2023-06-10T00:50:49;18.42;;;15.35;;
18387;SDS011;9320;50.256;19.026;2023-06-10T00:53:18;20.38;;;15.20;;
18387;SDS011;9320;50.256;19.026;2023-06-10T00:55:47;20.23;;;14.95;;
18387;SDS011;9320;50.256;19.026;2023-06-10T00:58:15;20.10;;;15.98;;
18387;SDS011;9320;50.256;19.026;2023-06-10T01:00:43;23.25;;;14.98;;
18387;SDS011;9320;50.256;19.026;2023-06-10T01:03:13;19.77;;;16.40;;
18387;SDS011;9320;50.256;19.026;2023-06-10T01:05:44;18.40;;;14.65;;
18387;SDS011;9320;50.256;19.026;2023-06-10T01:08:24;17.85;;;14.95;;
18387;SDS011;9320;50.256;19.026;2023-06-10T01:11:08;21.25;;;15.70;;
18387;SDS011;9320;50.256;19.026;2023-06-10T01:13:46;20.98;;;14.10;;
18387;SDS011;9320;50.256;19.026;2023-06-10T01:16:17;18.33;;;14.50;;
18387;SDS011;9320;50.256;19.026;2023-06-10T01:18:47;19.75;;;15.50;;
18387;SDS011;9320;50.256;19.026;2023-06-10T01:21:20;22.15;;;16.40;;
18387;SDS011;9320;50.256;19.026;2023-06-10T01:23:51;22.75;;;15.30;;
18387;SDS011;9320;50.256;19.026;2023-06-10T01:26:20;20.33;;;14.90;;
18387;SDS011;9320;50.256;19.026;2023-06-10T01:28:54;23.90;;;16.05;;
18387;SDS011;9320;50.256;19.026;2023-06-10T01:31:28;19.40;;;15.25;;
18387;SDS011;9320;50.256;19.026;2023-06-10T01:34:05;22.58;;;15.70;;
18387;SDS011;9320;50.256;19.026;2023-06-10T01:36:37;19.38;;;14.63;;
18387;SDS011;9320;50.256;19.026;2023-06-10T01:39:08;19.75;;;15.05;;
18387;SDS011;9320;50.256;19.026;2023-06-10T01:41:38;23.83;;;16.85;;
18387;SDS011;9320;50.256;19.026;2023-06-10T01:44:07;19.77;;;15.15;;
18387;SDS011;9320;50.256;19.026;2023-06-10T01:46:36;20.88;;;16.20;;
18387;SDS011;9320;50.256;19.026;2023-06-10T01:49:04;22.92;;;16.25;;
18387;SDS011;9320;50.256;19.026;2023-06-10T01:51:33;22.45;;;16.88;;
18387;SDS011;9320;50.256;19.026;2023-06-10T01:54:03;23.52;;;16.05;;
18387;SDS011;9320;50.256;19.026;2023-06-10T01:56:32;26.02;;;16.48;;
18387;SDS011;9320;50.256;19.026;2023-06-10T01:59:00;21.20;;;16.15;;
18387;SDS011;9320;50.256;19.026;2023-06-10T02:01:29;22.88;;;17.65;;
18387;SDS011;9320;50.256;19.026;2023-06-10T02:03:57;21.95;;;17.00;;
18387;SDS011;9320;50.256;19.026;2023-06-10T02:06:25;22.95;;;17.83;;
18387;SDS011;9320;50.256;19.026;2023-06-10T02:08:53;22.30;;;17.63;;
18387;SDS011;9320;50.256;19.026;2023-06-10T02:11:23;25.83;;;18.50;;
18387;SDS011;9320;50.256;19.026;2023-06-10T02:13:51;22.60;;;16.88;;
18387;SDS011;9320;50.256;19.026;2023-06-10T02:16:19;23.05;;;17.55;;
18387;SDS011;9320;50.256;19.026;2023-06-10T02:18:47;25.50;;;16.40;;
18387;SDS011;9320;50.256;19.026;2023-06-10T02:21:15;23.75;;;16.77;;
18387;SDS011;9320;50.256;19.026;2023-06-10T02:23:43;26.10;;;18.40;;
18387;SDS011;9320;50.256;19.026;2023-06-10T02:26:12;23.75;;;16.75;;
18387;SDS011;9320;50.256;19.026;2023-06-10T02:28:43;23.23;;;18.33;;
18387;SDS011;9320;50.256;19.026;2023-06-10T02:31:11;21.65;;;16.98;;
18387;SDS011;9320;50.256;19.026;2023-06-10T02:33:40;27.27;;;20.58;;
18387;SDS011;9320;50.256;19.026;2023-06-10T02:36:08;21.50;;;17.23;;
18387;SDS011;9320;50.256;19.026;2023-06-10T02:38:39;25.02;;;16.83;;
18387;SDS011;9320;50.256;19.026;2023-06-10T02:41:07;30.55;;;20.02;;
18387;SDS011;9320;50.256;19.026;2023-06-10T02:43:35;29.27;;;19.85;;
18387;SDS011;9320;50.256;19.026;2023-06-10T02:46:05;25.42;;;17.98;;
18387;SDS011;9320;50.256;19.026;2023-06-10T02:48:38;31.70;;;21.00;;
18387;SDS011;9320;50.256;19.026;2023-06-10T02:51:08;28.23;;;18.23;;
18387;SDS011;9320;50.256;19.026;2023-06-10T02:53:36;26.42;;;19.83;;
18387;SDS011;9320;50.256;19.026;2023-06-10T02:56:04;31.75;;;19.45;;
18387;SDS011;9320;50.256;19.026;2023-06-10T02:58:32;22.35;;;17.42;;
18387;SDS011;9320;50.256;19.026;2023-06-10T03:01:00;24.05;;;18.38;;
18387;SDS011;9320;50.256;19.026;2023-06-10T03:03:30;25.95;;;18.73;;
18387;SDS011;9320;50.256;19.026;2023-06-10T03:06:00;26.55;;;20.48;;
18387;SDS011;9320;50.256;19.026;2023-06-10T03:08:28;30.52;;;22.95;;
18387;SDS011;9320;50.256;19.026;2023-06-10T03:10:57;24.80;;;19.40;;
18387;SDS011;9320;50.256;19.026;2023-06-10T03:13:25;25.33;;;20.02;;
18387;SDS011;9320;50.256;19.026;2023-06-10T03:15:53;27.95;;;20.35;;
18387;SDS011;9320;50.256;19.026;2023-06-10T03:18:21;28.38;;;20.75;;
18387;SDS011;9320;50.256;19.026;2023-06-10T03:20:54;25.55;;;19.13;;
18387;SDS011;9320;50.256;19.026;2023-06-10T03:23:23;27.88;;;20.08;;
18387;SDS011;9320;50.256;19.026;2023-06-10T03:25:51;26.15;;;19.80;;
18387;SDS011;9320;50.256;19.026;2023-06-10T03:28:21;26.30;;;20.50;;
18387;SDS011;9320;50.256;19.026;2023-06-10T03:30:49;28.05;;;18.88;;
18387;SDS011;9320;50.256;19.026;2023-06-10T03:33:18;24.83;;;18.98;;
18387;SDS011;9320;50.256;19.026;2023-06-10T03:35:46;26.88;;;20.73;;
18387;SDS011;9320;50.256;19.026;2023-06-10T03:38:15;24.73;;;19.17;;
18387;SDS011;9320;50.256;19.026;2023-06-10T03:40:43;26.80;;;20.33;;
18387;SDS011;9320;50.256;19.026;2023-06-10T03:43:12;28.42;;;20.35;;
18387;SDS011;9320;50.256;19.026;2023-06-10T03:45:40;28.60;;;21.73;;
18387;SDS011;9320;50.256;19.026;2023-06-10T03:48:08;23.90;;;18.08;;
18387;SDS011;9320;50.256;19.026;2023-06-10T03:50:37;22.77;;;17.85;;
18387;SDS011;9320;50.256;19.026;2023-06-10T03:53:05;24.08;;;18.45;;
18387;SDS011;9320;50.256;19.026;2023-06-10T03:55:34;25.35;;;18.02;;
18387;SDS011;9320;50.256;19.026;2023-06-10T03:58:03;26.45;;;19.17;;
18387;SDS011;9320;50.256;19.026;2023-06-10T04:00:31;24.05;;;17.95;;
18387;SDS011;9320;50.256;19.026;2023-06-10T04:03:07;23.73;;;17.23;;
18387;SDS011;9320;50.256;19.026;2023-06-10T04:05:41;29.77;;;18.00;;
18387;SDS011;9320;50.256;19.026;2023-06-10T04:08:09;25.60;;;16.63;;
18387;SDS011;9320;50.256;19.026;2023-06-10T04:10:38;25.08;;;17.77;;
18387;SDS011;9320;50.256;19.026;2023-06-10T04:13:06;24.73;;;17.27;;
18387;SDS011;9320;50.256;19.026;2023-06-10T04:15:35;25.38;;;16.75;;
18387;SDS011;9320;50.256;19.026;2023-06-10T04:18:04;25.05;;;17.33;;
18387;SDS011;9320;50.256;19.026;2023-06-10T04:20:32;20.75;;;15.70;;
18387;SDS011;9320;50.256;19.026;2023-06-10T04:23:00;20.92;;;14.98;;
18387;SDS011;9320;50.256;19.026;2023-06-10T04:25:28;19.27;;;15.55;;
18387;SDS011;9320;50.256;19.026;2023-06-10T04:27:58;23.10;;;16.35;;
18387;SDS011;9320;50.256;19.026;2023-06-10T04:30:26;22.50;;;15.73;;
18387;SDS011;9320;50.256;19.026;2023-06-10T04:32:54;23.77;;;16.45;;
18387;SDS011;9320;50.256;19.026;2023-06-10T04:35:23;19.15;;;14.52;;
18387;SDS011;9320;50.256;19.026;2023-06-10T04:37:53;20.42;;;15.13;;
18387;SDS011;9320;50.256;19.026;2023-06-10T04:40:21;19.55;;;14.98;;
18387;SDS011;9320;50.256;19.026;2023-06-10T04:42:49;22.42;;;15.35;;
18387;SDS011;9320;50.256;19.026;2023-06-10T04:45:18;23.35;;;15.95;;
18387;SDS011;9320;50.256;19.026;2023-06-10T04:47:46;22.67;;;15.32;;
18387;SDS011;9320;50.256;19.026;2023-06-10T04:50:14;19.73;;;15.15;;
18387;SDS011;9320;50.256;19.026;2023-06-10T04:52:43;19.88;;;14.93;;
18387;SDS011;9320;50.256;19.026;2023-06-10T04:55:11;19.58;;;14.63;;
18387;SDS011;9320;50.256;19.026;2023-06-10T04:57:39;19.35;;;14.73;;
18387;SDS011;9320;50.256;19.026;2023-06-10T05:00:08;25.27;;;14.45;;
18387;SDS011;9320;50.256;19.026;2023-06-10T05:02:38;23.05;;;14.85;;
18387;SDS011;9320;50.256;19.026;2023-06-10T05:05:06;19.27;;;14.02;;
18387;SDS011;9320;50.256;19.026;2023-06-10T05:07:35;20.75;;;15.20;;
18387;SDS011;9320;50.256;19.026;2023-06-10T05:10:03;19.73;;;14.88;;
18387;SDS011;9320;50.256;19.026;2023-06-10T05:12:32;21.75;;;15.07;;
18387;SDS011;9320;50.256;19.026;2023-06-10T05:15:00;20.98;;;15.77;;
18387;SDS011;9320;50.256;19.026;2023-06-10T05:17:28;20.88;;;15.85;;
18387;SDS011;9320;50.256;19.026;2023-06-10T05:19:57;20.60;;;14.77;;
18387;SDS011;9320;50.256;19.026;2023-06-10T05:22:26;21.20;;;15.25;;
18387;SDS011;9320;50.256;19.026;2023-06-10T05:24:54;22.90;;;14.50;;
18387;SDS011;9320;50.256;19.026;2023-06-10T05:27:22;19.52;;;14.85;;
18387;SDS011;9320;50.256;19.026;2023-06-10T05:29:50;24.67;;;15.05;;
18387;SDS011;9320;50.256;19.026;2023-06-10T05:32:18;19.55;;;13.38;;
18387;SDS011;9320;50.256;19.026;2023-06-10T05:34:46;21.83;;;13.93;;
18387;SDS011;9320;50.256;19.026;2023-06-10T05:37:16;19.90;;;13.25;;
18387;SDS011;9320;50.256;19.026;2023-06-10T05:39:44;18.60;;;11.88;;
18387;SDS011;9320;50.256;19.026;2023-06-10T05:42:12;14.60;;;11.38;;
18387;SDS011;9320;50.256;19.026;2023-06-10T05:44:41;20.55;;;11.60;;
18387;SDS011;9320;50.256;19.026;2023-06-10T05:47:09;19.48;;;11.63;;
18387;SDS011;9320;50.256;19.026;2023-06-10T05:49:37;14.10;;;10.88;;
18387;SDS011;9320;50.256;19.026;2023-06-10T05:52:05;16.08;;;11.18;;
18387;SDS011;9320;50.256;19.026;2023-06-10T05:54:35;18.08;;;10.55;;
18387;SDS011;9320;50.256;19.026;2023-06-10T05:57:03;13.73;;;10.02;;
18387;SDS011;9320;50.256;19.026;2023-06-10T05:59:32;15.15;;;9.88;;
18387;SDS011;9320;50.256;19.026;2023-06-10T06:02:00;13.38;;;9.38;;
18387;SDS011;9320;50.256;19.026;2023-06-10T06:04:28;13.40;;;9.95;;
18387;SDS011;9320;50.256;19.026;2023-06-10T06:06:56;11.85;;;8.82;;
18387;SDS011;9320;50.256;19.026;2023-06-10T06:09:24;15.68;;;9.07;;
18387;SDS011;9320;50.256;19.026;2023-06-10T06:11:54;14.85;;;9.90;;
18387;SDS011;9320;50.256;19.026;2023-06-10T06:14:22;17.23;;;9.43;;
18387;SDS011;9320;50.256;19.026;2023-06-10T06:16:50;12.23;;;9.65;;
18387;SDS011;9320;50.256;19.026;2023-06-10T06:19:18;15.48;;;10.15;;
18387;SDS011;9320;50.256;19.026;2023-06-10T06:21:46;12.98;;;9.63;;
18387;SDS011;9320;50.256;19.026;2023-06-10T06:24:14;15.60;;;10.02;;
18387;SDS011;9320;50.256;19.026;2023-06-10T06:26:42;17.00;;;9.65;;
18387;SDS011;9320;50.256;19.026;2023-06-10T06:29:12;11.75;;;9.35;;
18387;SDS011;9320;50.256;19.026;2023-06-10T06:31:40;15.27;;;9.32;;
18387;SDS011;9320;50.256;19.026;2023-06-10T06:34:09;13.95;;;9.45;;
18387;SDS011;9320;50.256;19.026;2023-06-10T06:36:40;15.35;;;9.45;;
18387;SDS011;9320;50.256;19.026;2023-06-10T06:39:08;11.55;;;9.20;;
18387;SDS011;9320;50.256;19.026;2023-06-10T06:41:36;18.00;;;9.82;;
18387;SDS011;9320;50.256;19.026;2023-06-10T06:44:04;14.02;;;10.02;;
18387;SDS011;9320;50.256;19.026;2023-06-10T06:46:33;13.52;;;8.82;;
18387;SDS011;9320;50.256;19.026;2023-06-10T06:49:01;15.07;;;9.35;;
18387;SDS011;9320;50.256;19.026;2023-06-10T06:51:29;11.65;;;8.88;;
18387;SDS011;9320;50.256;19.026;2023-06-10T06:53:57;20.55;;;9.75;;
18387;SDS011;9320;50.256;19.026;2023-06-10T06:56:26;14.98;;;9.73;;
18387;SDS011;9320;50.256;19.026;2023-06-10T06:58:54;15.18;;;9.60;;
18387;SDS011;9320;50.256;19.026;2023-06-10T07:01:23;15.50;;;9.45;;
18387;SDS011;9320;50.256;19.026;2023-06-10T07:03:53;12.32;;;9.82;;
18387;SDS011;9320;50.256;19.026;2023-06-10T07:06:21;14.02;;;9.07;;
18387;SDS011;9320;50.256;19.026;2023-06-10T07:08:49;12.73;;;9.45;;
18387;SDS011;9320;50.256;19.026;2023-06-10T07:11:17;13.55;;;9.32;;
18387;SDS011;9320;50.256;19.026;2023-06-10T07:13:45;19.92;;;10.90;;
18387;SDS011;9320;50.256;19.026;2023-06-10T07:16:13;16.17;;;9.23;;
18387;SDS011;9320;50.256;19.026;2023-06-10T07:18:42;16.33;;;10.30;;
18387;SDS011;9320;50.256;19.026;2023-06-10T07:21:11;17.35;;;10.25;;
18387;SDS011;9320;50.256;19.026;2023-06-10T07:23:41;13.25;;;10.18;;
18387;SDS011;9320;50.256;19.026;2023-06-10T07:26:09;13.32;;;10.10;;
18387;SDS011;9320;50.256;19.026;2023-06-10T07:28:39;12.80;;;9.20;;
18387;SDS011;9320;50.256;19.026;2023-06-10T07:31:08;11.77;;;9.07;;
18387;SDS011;9320;50.256;19.026;2023-06-10T07:33:38;10.77;;;8.80;;
18387;SDS011;9320;50.256;19.026;2023-06-10T07:36:06;16.17;;;9.30;;
18387;SDS011;9320;50.256;19.026;2023-06-10T07:38:36;10.85;;;8.55;;
18387;SDS011;9320;50.256;19.026;2023-06-10T07:41:04;14.27;;;9.00;;
18387;SDS011;9320;50.256;19.026;2023-06-10T07:43:32;13.10;;;9.15;;
18387;SDS011;9320;50.256;19.026;2023-06-10T07:46:00;12.30;;;8.70;;
18387;SDS011;9320;50.256;19.026;2023-06-10T07:48:28;13.82;;;8.10;;
18387;SDS011;9320;50.256;19.026;2023-06-10T07:50:56;11.32;;;8.10;;
18387;SDS011;9320;50.256;19.026;2023-06-10T07:53:24;14.98;;;8.23;;
18387;SDS011;9320;50.256;19.026;2023-06-10T07:55:54;13.23;;;8.43;;
18387;SDS011;9320;50.256;19.026;2023-06-10T07:58:22;10.63;;;8.27;;
18387;SDS011;9320;50.256;19.026;2023-06-10T08:00:50;10.13;;;8.10;;
18387;SDS011;9320;50.256;19.026;2023-06-10T08:03:18;12.05;;;7.82;;
18387;SDS011;9320;50.256;19.026;2023-06-10T08:05:46;9.05;;;7.20;;
18387;SDS011;9320;50.256;19.026;2023-06-10T08:08:15;15.73;;;7.80;;
18387;SDS011;9320;50.256;19.026;2023-06-10T08:10:43;9.60;;;7.45;;
18387;SDS011;9320;50.256;19.026;2023-06-10T08:13:12;11.32;;;7.78;;
18387;SDS011;9320;50.256;19.026;2023-06-10T08:15:40;13.73;;;7.82;;
18387;SDS011;9320;50.256;19.026;2023-06-10T08:18:08;9.88;;;7.65;;
18387;SDS011;9320;50.256;19.026;2023-06-10T08:20:37;11.07;;;8.00;;
18387;SDS011;9320;50.256;19.026;2023-06-10T08:23:05;11.75;;;7.72;;
18387;SDS011;9320;50.256;19.026;2023-06-10T08:25:33;12.30;;;7.40;;
18387;SDS011;9320;50.256;19.026;2023-06-10T08:28:01;8.35;;;7.03;;
18387;SDS011;9320;50.256;19.026;2023-06-10T08:30:30;12.00;;;7.65;;
18387;SDS011;9320;50.256;19.026;2023-06-10T08:32:59;11.20;;;7.50;;
18387;SDS011;9320;50.256;19.026;2023-06-10T08:35:27;8.98;;;6.60;;
18387;SDS011;9320;50.256;19.026;2023-06-10T08:37:55;9.90;;;6.97;;
18387;SDS011;9320;50.256;19.026;2023-06-10T08:40:23;13.45;;;6.53;;
18387;SDS011;9320;50.256;19.026;2023-06-10T08:42:53;9.73;;;7.00;;
18387;SDS011;9320;50.256;19.026;2023-06-10T08:45:28;9.40;;;7.18;;
18387;SDS011;9320;50.256;19.026;2023-06-10T08:47:58;10.48;;;7.00;;
18387;SDS011;9320;50.256;19.026;2023-06-10T08:50:28;9.13;;;6.53;;
18387;SDS011;9320;50.256;19.026;2023-06-10T08:52:57;9.20;;;6.55;;
18387;SDS011;9320;50.256;19.026;2023-06-10T08:55:27;10.65;;;7.32;;
18387;SDS011;9320;50.256;19.026;2023-06-10T08:57:58;9.20;;;7.07;;
18387;SDS011;9320;50.256;19.026;2023-06-10T09:00:27;11.20;;;6.63;;
18387;SDS011;9320;50.256;19.026;2023-06-10T09:02:58;10.93;;;7.55;;
18387;SDS011;9320;50.256;19.026;2023-06-10T09:05:31;12.50;;;7.20;;
18387;SDS011;9320;50.256;19.026;2023-06-10T09:08:01;11.48;;;7.10;;
18387;SDS011;9320;50.256;19.026;2023-06-10T09:10:29;9.05;;;6.97;;
18387;SDS011;9320;50.256;19.026;2023-06-10T09:12:58;9.13;;;6.85;;
18387;SDS011;9320;50.256;19.026;2023-06-10T09:15:26;9.15;;;6.50;;
18387;SDS011;9320;50.256;19.026;2023-06-10T09:17:54;11.02;;;7.05;;
18387;SDS011;9320;50.256;19.026;2023-06-10T09:20:24;11.05;;;6.60;;
18387;SDS011;9320;50.256;19.026;2023-06-10T09:22:52;10.68;;;6.97;;
18387;SDS011;9320;50.256;19.026;2023-06-10T09:25:21;9.38;;;6.82;;
18387;SDS011;9320;50.256;19.026;2023-06-10T09:28:02;11.25;;;7.30;;
18387;SDS011;9320;50.256;19.026;2023-06-10T09:30:32;9.60;;;7.57;;
18387;SDS011;9320;50.256;19.026;2023-06-10T09:33:01;11.93;;;7.90;;
18387;SDS011;9320;50.256;19.026;2023-06-10T09:35:44;10.45;;;7.47;;
18387;SDS011;9320;50.256;19.026;2023-06-10T09:38:13;12.75;;;9.15;;
18387;SDS011;9320;50.256;19.026;2023-06-10T09:40:52;13.43;;;8.27;;
18387;SDS011;9320;50.256;19.026;2023-06-10T09:43:21;13.73;;;8.02;;
18387;SDS011;9320;50.256;19.026;2023-06-10T09:45:49;11.18;;;7.22;;
18387;SDS011;9320;50.256;19.026;2023-06-10T09:48:19;9.43;;;7.03;;
18387;SDS011;9320;50.256;19.026;2023-06-10T09:50:49;13.23;;;6.88;;
18387;SDS011;9320;50.256;19.026;2023-06-10T09:53:18;12.80;;;7.20;;
18387;SDS011;9320;50.256;19.026;2023-06-10T09:55:46;13.98;;;7.43;;
18387;SDS011;9320;50.256;19.026;2023-06-10T09:58:14;9.95;;;5.93;;
18387;SDS011;9320;50.256;19.026;2023-06-10T10:00:42;9.57;;;6.32;;
18387;SDS011;9320;50.256;19.026;2023-06-10T10:03:10;8.68;;;5.70;;
18387;SDS011;9320;50.256;19.026;2023-06-10T10:05:51;7.65;;;5.68;;
18387;SDS011;9320;50.256;19.026;2023-06-10T10:08:26;6.85;;;5.05;;
18387;SDS011;9320;50.256;19.026;2023-06-10T10:10:55;7.47;;;4.97;;
18387;SDS011;9320;50.256;19.026;2023-06-10T10:13:24;10.10;;;5.70;;
18387;SDS011;9320;50.256;19.026;2023-06-10T10:15:54;7.00;;;4.72;;
18387;SDS011;9320;50.256;19.026;2023-06-10T10:18:27;6.22;;;4.63;;
18387;SDS011;9320;50.256;19.026;2023-06-10T10:21:00;9.70;;;5.28;;
18387;SDS011;9320;50.256;19.026;2023-06-10T10:23:34;11.27;;;5.68;;
18387;SDS011;9320;50.256;19.026;2023-06-10T10:26:07;8.85;;;4.78;;
18387;SDS011;9320;50.256;19.026;2023-06-10T10:28:40;13.85;;;5.45;;
18387;SDS011;9320;50.256;19.026;2023-06-10T10:31:12;8.05;;;5.15;;
18387;SDS011;9320;50.256;19.026;2023-06-10T10:33:48;6.53;;;4.60;;
18387;SDS011;9320;50.256;19.026;2023-06-10T10:36:24;6.60;;;4.18;;
18387;SDS011;9320;50.256;19.026;2023-06-10T10:38:52;5.47;;;4.40;;
18387;SDS011;9320;50.256;19.026;2023-06-10T10:41:21;7.97;;;4.43;;
18387;SDS011;9320;50.256;19.026;2023-06-10T10:43:52;7.68;;;4.78;;
18387;SDS011;9320;50.256;19.026;2023-06-10T10:46:21;10.32;;;4.70;;
18387;SDS011;9320;50.256;19.026;2023-06-10T10:48:51;7.60;;;4.75;;
18387;SDS011;9320;50.256;19.026;2023-06-10T10:51:22;6.13;;;4.57;;
18387;SDS011;9320;50.256;19.026;2023-06-10T10:56:40;9.18;;;4.88;;
18387;SDS011;9320;50.256;19.026;2023-06-10T10:59:50;8.55;;;4.95;;
18387;SDS011;9320;50.256;19.026;2023-06-10T11:02:39;9.10;;;5.25;;
18387;SDS011;9320;50.256;19.026;2023-06-10T11:05:10;7.00;;;5.15;;
18387;SDS011;9320;50.256;19.026;2023-06-10T11:07:41;7.88;;;4.93;;
18387;SDS011;9320;50.256;19.026;2023-06-10T11:10:28;7.03;;;4.88;;
18387;SDS011;9320;50.256;19.026;2023-06-10T11:12:58;10.65;;;5.30;;
18387;SDS011;9320;50.256;19.026;2023-06-10T11:15:27;7.55;;;5.22;;
18387;SDS011;9320;50.256;19.026;2023-06-10T11:18:15;10.45;;;5.65;;
18387;SDS011;9320;50.256;19.026;2023-06-10T11:20:51;6.30;;;4.80;;
18387;SDS011;9320;50.256;19.026;2023-06-10T11:26:18;8.65;;;4.90;;
18387;SDS011;9320;50.256;19.026;2023-06-10T11:31:45;9.77;;;5.03;;
18387;SDS011;9320;50.256;19.026;2023-06-10T11:34:23;8.35;;;5.32;;
18387;SDS011;9320;50.256;19.026;2023-06-10T11:36:53;6.10;;;4.90;;
18387;SDS011;9320;50.256;19.026;2023-06-10T11:39:21;7.57;;;4.70;;
18387;SDS011;9320;50.256;19.026;2023-06-10T11:41:54;7.32;;;4.93;;
18387;SDS011;9320;50.256;19.026;2023-06-10T11:44:22;7.45;;;5.30;;
18387;SDS011;9320;50.256;19.026;2023-06-10T11:46:56;10.07;;;5.18;;
18387;SDS011;9320;50.256;19.026;2023-06-10T11:49:24;11.60;;;5.28;;
18387;SDS011;9320;50.256;19.026;2023-06-10T11:51:52;10.88;;;5.60;;
18387;SDS011;9320;50.256;19.026;2023-06-10T11:54:20;7.95;;;5.30;;
18387;SDS011;9320;50.256;19.026;2023-06-10T11:56:49;7.25;;;5.63;;
18387;SDS011;9320;50.256;19.026;2023-06-10T11:59:18;7.00;;;5.32;;
18387;SDS011;9320;50.256;19.026;2023-06-10T12:01:54;7.45;;;5.50;;
18387;SDS011;9320;50.256;19.026;2023-06-10T12:04:22;8.38;;;5.80;;
18387;SDS011;9320;50.256;19.026;2023-06-10T12:06:53;7.47;;;5.80;;
18387;SDS011;9320;50.256;19.026;2023-06-10T12:09:22;7.15;;;5.22;;
18387;SDS011;9320;50.256;19.026;2023-06-10T12:11:54;9.25;;;5.47;;
18387;SDS011;9320;50.256;19.026;2023-06-10T12:17:22;7.97;;;5.30;;
18387;SDS011;9320;50.256;19.026;2023-06-10T12:19:51;8.80;;;5.95;;
18387;SDS011;9320;50.256;19.026;2023-06-10T12:22:19;8.90;;;5.80;;
18387;SDS011;9320;50.256;19.026;2023-06-10T12:24:59;12.18;;;6.20;;
18387;SDS011;9320;50.256;19.026;2023-06-10T12:27:29;8.00;;;5.90;;
18387;SDS011;9320;50.256;19.026;2023-06-10T12:29:59;7.82;;;5.93;;
18387;SDS011;9320;50.256;19.026;2023-06-10T12:32:38;9.40;;;5.72;;
18387;SDS011;9320;50.256;19.026;2023-06-10T12:35:07;6.15;;;5.38;;
18387;SDS011;9320;50.256;19.026;2023-06-10T12:37:37;7.88;;;5.82;;
18387;SDS011;9320;50.256;19.026;2023-06-10T12:40:09;10.68;;;5.72;;
18387;SDS011;9320;50.256;19.026;2023-06-10T12:42:38;8.00;;;5.85;;
18387;SDS011;9320;50.256;19.026;2023-06-10T12:45:10;7.75;;;5.65;;
18387;SDS011;9320;50.256;19.026;2023-06-10T12:47:39;9.32;;;5.22;;
18387;SDS011;9320;50.256;19.026;2023-06-10T12:50:08;6.72;;;5.10;;
18387;SDS011;9320;50.256;19.026;2023-06-10T12:52:38;7.88;;;4.90;;
18387;SDS011;9320;50.256;19.026;2023-06-10T12:55:07;7.78;;;5.20;;
18387;SDS011;9320;50.256;19.026;2023-06-10T12:57:36;7.25;;;5.05;;
18387;SDS011;9320;50.256;19.026;2023-06-10T13:00:05;5.82;;;4.90;;
18387;SDS011;9320;50.256;19.026;2023-06-10T13:02:36;6.35;;;4.63;;
18387;SDS011;9320;50.256;19.026;2023-06-10T13:05:04;8.90;;;5.18;;
18387;SDS011;9320;50.256;19.026;2023-06-10T13:07:33;6.93;;;4.82;;
18387;SDS011;9320;50.256;19.026;2023-06-10T13:10:01;9.10;;;5.32;;
18387;SDS011;9320;50.256;19.026;2023-06-10T13:12:30;7.78;;;5.63;;
18387;SDS011;9320;50.256;19.026;2023-06-10T13:15:12;8.75;;;5.72;;
18387;SDS011;9320;50.256;19.026;2023-06-10T13:17:43;7.13;;;5.45;;
18387;SDS011;9320;50.256;19.026;2023-06-10T13:20:12;6.90;;;5.32;;
18387;SDS011;9320;50.256;19.026;2023-06-10T13:22:40;7.07;;;4.97;;
18387;SDS011;9320;50.256;19.026;2023-06-10T13:25:08;6.78;;;5.43;;
18387;SDS011;9320;50.256;19.026;2023-06-10T13:27:38;6.75;;;5.80;;
18387;SDS011;9320;50.256;19.026;2023-06-10T13:30:06;6.97;;;5.88;;
18387;SDS011;9320;50.256;19.026;2023-06-10T13:32:35;7.15;;;5.82;;
18387;SDS011;9320;50.256;19.026;2023-06-10T13:35:05;8.45;;;5.90;;
18387;SDS011;9320;50.256;19.026;2023-06-10T13:37:35;7.63;;;5.57;;
18387;SDS011;9320;50.256;19.026;2023-06-10T13:40:04;9.77;;;6.05;;
18387;SDS011;9320;50.256;19.026;2023-06-10T13:42:34;7.63;;;5.78;;
18387;SDS011;9320;50.256;19.026;2023-06-10T13:45:03;7.57;;;5.68;;
18387;SDS011;9320;50.256;19.026;2023-06-10T13:47:33;9.63;;;5.72;;
18387;SDS011;9320;50.256;19.026;2023-06-10T13:50:02;7.20;;;5.80;;
18387;SDS011;9320;50.256;19.026;2023-06-10T13:52:31;8.40;;;5.68;;
18387;SDS011;9320;50.256;19.026;2023-06-10T13:54:59;8.90;;;5.60;;
18387;SDS011;9320;50.256;19.026;2023-06-10T13:57:28;7.13;;;5.63;;
18387;SDS011;9320;50.256;19.026;2023-06-10T13:59:56;7.47;;;5.72;;
18387;SDS011;9320;50.256;19.026;2023-06-10T14:02:24;6.97;;;5.80;;
18387;SDS011;9320;50.256;19.026;2023-06-10T14:04:52;7.63;;;6.32;;
18387;SDS011;9320;50.256;19.026;2023-06-10T14:07:20;8.00;;;5.85;;
18387;SDS011;9320;50.256;19.026;2023-06-10T14:09:50;9.02;;;6.10;;
18387;SDS011;9320;50.256;19.026;2023-06-10T14:12:18;9.00;;;6.25;;
18387;SDS011;9320;50.256;19.026;2023-06-10T14:14:46;8.82;;;6.35;;
18387;SDS011;9320;50.256;19.026;2023-06-10T14:17:14;6.35;;;5.65;;
18387;SDS011;9320;50.256;19.026;2023-06-10T14:19:42;9.52;;;6.40;;
18387;SDS011;9320;50.256;19.026;2023-06-10T14:22:10;8.23;;;5.60;;
18387;SDS011;9320;50.256;19.026;2023-06-10T14:24:38;7.40;;;4.75;;
18387;SDS011;9320;50.256;19.026;2023-06-10T14:27:07;11.35;;;5.00;;
18387;SDS011;9320;50.256;19.026;2023-06-10T14:29:35;31.17;;;9.50;;
18387;SDS011;9320;50.256;19.026;2023-06-10T14:32:04;17.45;;;7.18;;
18387;SDS011;9320;50.256;19.026;2023-06-10T14:34:35;10.13;;;6.03;;
18387;SDS011;9320;50.256;19.026;2023-06-10T14:37:03;10.68;;;5.70;;
18387;SDS011;9320;50.256;19.026;2023-06-10T14:39:34;9.10;;;6.10;;
18387;SDS011;9320;50.256;19.026;2023-06-10T14:42:02;11.10;;;6.25;;
18387;SDS011;9320;50.256;19.026;2023-06-10T14:44:33;11.57;;;6.88;;
18387;SDS011;9320;50.256;19.026;2023-06-10T14:47:01;9.45;;;6.63;;
18387;SDS011;9320;50.256;19.026;2023-06-10T14:49:29;9.75;;;6.10;;
18387;SDS011;9320;50.256;19.026;2023-06-10T14:51:57;9.00;;;5.80;;
18387;SDS011;9320;50.256;19.026;2023-06-10T14:54:25;13.20;;;6.38;;
18387;SDS011;9320;50.256;19.026;2023-06-10T14:56:54;12.93;;;7.95;;
18387;SDS011;9320;50.256;19.026;2023-06-10T14:59:22;10.32;;;7.30;;